createdAt,value
2023-01-18T00:02:57.915Z,99448.38
2023-01-18T00:06:02.023Z,99443.91
2023-01-18T00:09:05.683Z,99427.25
2023-01-18T00:12:09.090Z,99427.06
2023-01-18T00:15:11.976Z,99421.19
2023-01-18T00:18:14.003Z,99402.19
2023-01-18T00:21:16.288Z,99414.72
2023-01-18T00:24:18.265Z,99427.34
2023-01-18T00:27:21.773Z,99411.44
2023-01-18T00:30:27.754Z,99395.06
2023-01-18T00:33:30.903Z,99388.78
2023-01-18T00:36:34.442Z,99393.72
2023-01-18T00:39:38.269Z,99392.53
2023-01-18T00:43:01.008Z,99375.28
2023-01-18T00:46:06.183Z,99366.50
2023-01-18T00:49:08.579Z,99360.47
2023-01-18T00:52:10.744Z,99357.66
2023-01-18T00:55:14.993Z,99348.47
2023-01-18T00:58:17.152Z,99353.53
2023-01-18T01:01:19.501Z,99359.81
2023-01-18T01:04:40.524Z,99356.59
2023-01-18T01:07:42.622Z,99361.44
2023-01-18T01:10:46.566Z,99364.28
2023-01-18T01:14:07.765Z,99355.66
2023-01-18T01:17:28.039Z,99341.50
2023-01-18T01:20:48.658Z,99320.25
2023-01-18T01:24:10.763Z,99327.59
2023-01-18T01:27:14.037Z,99307.66
2023-01-18T01:30:16.987Z,99314.53
2023-01-18T01:33:20.049Z,99302.72
2023-01-18T01:36:28.538Z,99293.03
2023-01-18T01:39:32.935Z,99315.19
2023-01-18T01:42:34.959Z,99306.97
2023-01-18T01:45:38.391Z,99299.06
2023-01-18T01:48:41.723Z,99294.00
2023-01-18T01:51:49.111Z,99274.06
2023-01-18T01:54:58.400Z,99285.72
2023-01-18T01:58:26.446Z,99281.84
2023-01-18T02:01:30.080Z,99264.22
2023-01-18T02:04:33.473Z,99238.19
2023-01-18T02:07:35.744Z,99263.88
2023-01-18T02:10:38.110Z,99251.25
2023-01-18T02:13:40.410Z,99256.28
2023-01-18T02:16:48.331Z,99253.22
2023-01-18T02:20:19.819Z,99235.09
2023-01-18T02:23:28.490Z,99247.94
2023-01-18T02:27:06.165Z,99243.22
2023-01-18T02:30:32.677Z,99236.94
2023-01-18T02:33:47.237Z,99239.94
2023-01-18T02:37:02.126Z,99246.06
2023-01-18T02:40:22.219Z,99260.81
2023-01-18T02:43:44.073Z,99232.78
2023-01-18T02:46:46.566Z,99233.03
2023-01-18T02:49:48.640Z,99215.34
2023-01-18T02:52:53.804Z,99202.97
2023-01-18T02:56:06.903Z,99200.47
2023-01-18T02:59:20.897Z,99212.97
2023-01-18T03:02:26.518Z,99212.25
2023-01-18T03:05:31.205Z,99220.03
2023-01-18T03:08:41.970Z,99211.09
2023-01-18T03:12:12.991Z,99224.41
2023-01-18T03:15:27.799Z,99222.38
2023-01-18T03:18:30.381Z,99215.66
2023-01-18T03:21:49.426Z,99210.34
2023-01-18T03:24:51.651Z,99216.81
2023-01-18T03:28:14.641Z,99190.88
2023-01-18T03:31:56.706Z,99208.56
2023-01-18T03:35:16.482Z,99201.38
2023-01-18T03:38:20.825Z,99208.22
2023-01-18T03:41:27.121Z,99195.66
2023-01-18T03:44:39.988Z,99193.19
2023-01-18T03:47:42.564Z,99186.44
2023-01-18T03:51:10.796Z,99192.59
2023-01-18T03:54:29.181Z,99190.69
2023-01-18T03:57:40.684Z,99188.41
2023-01-18T04:00:43.485Z,99205.03
2023-01-18T04:03:45.547Z,99208.06
2023-01-18T04:06:47.493Z,99208.78
2023-01-18T04:09:49.740Z,99202.19
2023-01-18T04:12:51.778Z,99185.91
2023-01-18T04:15:53.893Z,99180.94
2023-01-18T04:18:55.995Z,99196.63
2023-01-18T04:21:58.126Z,99211.13
2023-01-18T04:25:00.341Z,99209.81
2023-01-18T04:28:02.663Z,99217.72
2023-01-18T04:31:05.868Z,99211.97
2023-01-18T04:34:08.804Z,99216.97
2023-01-18T04:37:12.080Z,99213.09
2023-01-18T04:40:14.270Z,99213.09
2023-01-18T04:43:16.644Z,99225.66
2023-01-18T04:46:18.909Z,99212.91
2023-01-18T04:49:22.280Z,99208.94
2023-01-18T04:52:25.680Z,99197.84
2023-01-18T04:55:28.064Z,99219.78
2023-01-18T04:58:30.070Z,99230.78
2023-01-18T05:01:32.591Z,99227.06
2023-01-18T05:04:34.998Z,99229.19
2023-01-18T05:07:37.023Z,99210.81
2023-01-18T05:10:39.318Z,99219.06
2023-01-18T05:13:41.801Z,99222.94
2023-01-18T05:16:43.867Z,99198.28
2023-01-18T05:19:46.991Z,99222.38
2023-01-18T05:22:49.252Z,99228.25
2023-01-18T05:25:55.382Z,99226.47
2023-01-18T05:28:58.271Z,99242.97
2023-01-18T05:32:01.298Z,99257.66
2023-01-18T05:35:05.079Z,99246.47
2023-01-18T05:38:07.256Z,99264.00
2023-01-18T05:41:09.309Z,99253.25
2023-01-18T05:44:11.419Z,99251.72
2023-01-18T05:47:13.542Z,99251.25
2023-01-18T05:50:16.202Z,99226.75
2023-01-18T05:53:20.887Z,99239.28
2023-01-18T05:56:22.881Z,99235.28
2023-01-18T05:59:25.092Z,99235.66
2023-01-18T06:02:27.325Z,99243.66
2023-01-18T06:05:29.511Z,99245.59
2023-01-18T06:08:32.067Z,99250.28
2023-01-18T06:11:34.111Z,99248.13
2023-01-18T06:14:36.219Z,99255.13
2023-01-18T06:17:38.308Z,99263.78
2023-01-18T06:20:40.818Z,99250.38
2023-01-18T06:23:42.969Z,99245.59
2023-01-18T06:26:45.089Z,99263.84
2023-01-18T06:29:47.331Z,99262.31
2023-01-18T06:32:52.547Z,99271.06
2023-01-18T06:35:56.615Z,99274.94
2023-01-18T06:38:59.016Z,99263.31
2023-01-18T06:42:01.442Z,99262.09
2023-01-18T06:45:04.277Z,99265.53
2023-01-18T06:48:06.540Z,99254.16
2023-01-18T06:51:08.654Z,99234.75
2023-01-18T06:54:10.840Z,99246.34
2023-01-18T06:57:13.170Z,99235.69
2023-01-18T07:00:17.018Z,99230.34
2023-01-18T07:03:19.202Z,99251.38
2023-01-18T07:06:21.527Z,99237.22
2023-01-18T07:09:24.220Z,99251.00
2023-01-18T07:12:26.842Z,99257.47
2023-01-18T07:15:30.197Z,99261.53
2023-01-18T07:18:32.583Z,99270.91
2023-01-18T07:21:34.699Z,99270.34
2023-01-18T07:24:36.856Z,99258.81
2023-01-18T07:27:40.352Z,99257.34
2023-01-18T07:30:42.621Z,99277.03
2023-01-18T07:33:45.160Z,99262.78
2023-01-18T07:36:47.949Z,99259.41
2023-01-18T07:39:51.901Z,99268.84
2023-01-18T07:42:58.305Z,99276.84
2023-01-18T07:46:02.068Z,99273.78
2023-01-18T07:49:05.932Z,99272.44
2023-01-18T07:52:08.398Z,99253.22
2023-01-18T07:55:12.842Z,99250.59
2023-01-18T07:58:14.916Z,99246.63
2023-01-18T08:01:20.188Z,99237.66
2023-01-18T08:04:22.487Z,99252.28
2023-01-18T08:07:24.603Z,99249.25
2023-01-18T08:10:29.942Z,99259.97
2023-01-18T08:13:35.244Z,99253.47
2023-01-18T08:16:37.399Z,99248.88
2023-01-18T08:19:39.458Z,99254.28
2023-01-18T08:22:41.807Z,99276.41
2023-01-18T08:25:45.070Z,99232.88
2023-01-18T08:28:47.144Z,99258.34
2023-01-18T08:31:52.744Z,99242.72
2023-01-18T08:34:54.760Z,99247.88
2023-01-18T08:37:58.152Z,99256.72
2023-01-18T08:41:04.863Z,99270.59
2023-01-18T08:44:07.001Z,99277.94
2023-01-18T08:47:09.217Z,99281.44
2023-01-18T08:50:12.788Z,99272.81
2023-01-18T08:53:14.857Z,99269.44
2023-01-18T08:56:18.147Z,99273.38
2023-01-18T08:59:21.154Z,99270.47
2023-01-18T09:02:25.154Z,99268.38
2023-01-18T09:05:27.397Z,99264.06
2023-01-18T09:08:29.707Z,99258.16
2023-01-18T09:11:31.991Z,99237.41
2023-01-18T09:14:34.229Z,99232.50
2023-01-18T09:17:36.326Z,99234.94
2023-01-18T09:20:38.378Z,99231.84
2023-01-18T09:23:41.150Z,99215.84
2023-01-18T09:26:45.215Z,99220.53
2023-01-18T09:29:52.401Z,99215.31
2023-01-18T09:32:57.965Z,99220.25
2023-01-18T09:36:04.515Z,99224.69
2023-01-18T09:39:07.457Z,99229.09
2023-01-18T09:42:19.141Z,99228.84
2023-01-18T09:45:35.169Z,99218.75
2023-01-18T09:48:41.147Z,99219.06
2023-01-18T09:52:12.265Z,99221.81
2023-01-18T09:55:22.748Z,99213.28
2023-01-18T09:58:42.883Z,99208.88
2023-01-18T10:01:46.183Z,99202.81
2023-01-18T10:04:56.599Z,99211.84
2023-01-18T10:08:16.048Z,99198.47
2023-01-18T10:11:34.115Z,99198.19
2023-01-18T10:14:57.131Z,99214.00
2023-01-18T10:18:01.096Z,99209.66
2023-01-18T10:21:07.207Z,99205.03
2023-01-18T10:24:20.260Z,99208.41
2023-01-18T10:27:40.989Z,99195.34
2023-01-18T10:31:04.736Z,99201.19
2023-01-18T10:34:22.666Z,99200.34
2023-01-18T10:37:57.623Z,99205.31
2023-01-18T10:41:02.190Z,99202.91
2023-01-18T10:44:04.836Z,99204.00
2023-01-18T10:47:08.314Z,99195.53
2023-01-18T10:50:17.096Z,99202.38
2023-01-18T10:53:35.518Z,99202.38
2023-01-18T10:56:40.122Z,99208.09
2023-01-18T10:59:43.185Z,99193.34
2023-01-18T11:02:46.072Z,99190.31
2023-01-18T11:05:48.648Z,99208.41
2023-01-18T11:08:51.565Z,99192.78
2023-01-18T11:12:30.924Z,99200.72
2023-01-18T11:15:33.087Z,99202.38
2023-01-18T11:18:35.192Z,99205.38
2023-01-18T11:21:42.865Z,99210.78
2023-01-18T11:24:45.043Z,99199.66
2023-01-18T11:27:50.015Z,99195.78
2023-01-18T11:30:54.771Z,99212.75
2023-01-18T11:34:04.111Z,99207.84
2023-01-18T11:37:31.197Z,99212.50
2023-01-18T11:40:35.076Z,99216.88
2023-01-18T11:43:39.470Z,99237.66
2023-01-18T11:46:49.988Z,99235.31
2023-01-18T11:50:13.517Z,99226.03
2023-01-18T11:53:25.689Z,99234.78
2023-01-18T11:56:40.985Z,99227.66
2023-01-18T11:59:48.133Z,99231.25
2023-01-18T12:02:59.231Z,99225.22
2023-01-18T12:06:07.073Z,99239.94
2023-01-18T12:09:24.278Z,99247.47
2023-01-18T12:12:53.761Z,99253.47
2023-01-18T12:15:55.746Z,99257.97
2023-01-18T12:19:15.962Z,99275.34
2023-01-18T12:22:36.494Z,99274.81
2023-01-18T12:26:20.332Z,99269.38
2023-01-18T12:29:43.788Z,99295.94
2023-01-18T12:32:58.084Z,99301.69
2023-01-18T12:36:32.735Z,99311.25
2023-01-18T12:39:58.422Z,99312.34
2023-01-18T12:43:20.421Z,99328.69
2023-01-18T12:46:47.112Z,99324.50
2023-01-18T12:49:56.270Z,99319.25
2023-01-18T12:53:04.783Z,99332.91
2023-01-18T12:56:13.514Z,99343.13
2023-01-18T12:59:42.961Z,99339.66
2023-01-18T13:02:48.164Z,99347.34
2023-01-18T13:06:02.688Z,99342.38
2023-01-18T13:09:13.039Z,99338.38
2023-01-18T13:12:17.652Z,99318.44
2023-01-18T13:15:55.080Z,99320.34
2023-01-18T13:19:06.671Z,99298.91
2023-01-18T13:22:40.746Z,99329.22
2023-01-18T13:25:46.235Z,99346.41
2023-01-18T13:29:14.109Z,99347.38
2023-01-18T13:32:32.152Z,99354.22
2023-01-18T13:35:35.969Z,99344.28
2023-01-18T13:38:58.800Z,99342.38
2023-01-18T13:42:04.209Z,99345.84
2023-01-18T13:45:15.086Z,99353.47
2023-01-18T13:48:35.706Z,99364.41
2023-01-18T13:51:40.673Z,99387.91
2023-01-18T13:54:46.831Z,99387.06
2023-01-18T13:57:55.588Z,99381.28
2023-01-18T14:01:03.464Z,99389.41
2023-01-18T14:04:19.999Z,99392.13
2023-01-18T14:07:23.390Z,99385.84
2023-01-18T14:10:30.776Z,99379.88
2023-01-18T14:13:45.255Z,99382.31
2023-01-18T14:17:22.722Z,99381.81
2023-01-18T14:20:48.916Z,99369.69
2023-01-18T14:24:09.991Z,99382.38
2023-01-18T14:27:20.142Z,99381.00
2023-01-18T14:30:30.724Z,99397.09
2023-01-18T14:33:42.811Z,99410.94
2023-01-18T14:36:44.924Z,99425.03
2023-01-18T14:39:48.324Z,99400.13
2023-01-18T14:43:00.107Z,99416.44
2023-01-18T14:46:25.288Z,99436.56
2023-01-18T14:49:39.257Z,99454.84
2023-01-18T14:52:44.220Z,99470.09
2023-01-18T14:56:02.701Z,99491.56
2023-01-18T14:59:28.746Z,99508.97
2023-01-18T15:02:39.629Z,99509.22
2023-01-18T15:05:42.810Z,99506.41
2023-01-18T15:08:47.222Z,99517.91
2023-01-18T15:11:52.336Z,99521.19
2023-01-18T15:15:03.867Z,99564.72
2023-01-18T15:18:11.146Z,99581.72
2023-01-18T15:21:19.026Z,99582.09
2023-01-18T15:24:25.515Z,99603.41
2023-01-18T15:27:31.940Z,99611.59
2023-01-18T15:30:34.147Z,99628.78
2023-01-18T15:33:37.700Z,99627.28
2023-01-18T15:36:45.047Z,99636.47
2023-01-18T15:39:51.020Z,99655.13
2023-01-18T15:43:02.594Z,99652.47
2023-01-18T15:46:09.177Z,99666.41
2023-01-18T15:49:16.868Z,99667.03
2023-01-18T15:52:43.871Z,99677.84
2023-01-18T15:55:55.841Z,99699.72
2023-01-18T15:59:03.052Z,99688.47
2023-01-18T16:02:11.775Z,99708.47
2023-01-18T16:05:18.342Z,99717.44
2023-01-18T16:08:22.984Z,99718.22
2023-01-18T16:11:34.281Z,99720.22
2023-01-18T16:14:38.507Z,99738.59
2023-01-18T16:17:43.589Z,99726.38
2023-01-18T16:20:45.802Z,99718.47
2023-01-18T16:23:49.947Z,99742.41
2023-01-18T16:26:52.668Z,99743.56
2023-01-18T16:30:15.723Z,99734.69
2023-01-18T16:33:20.969Z,99755.63
2023-01-18T16:36:24.243Z,99769.75
2023-01-18T16:39:27.739Z,99763.13
2023-01-18T16:42:38.069Z,99753.06
2023-01-18T16:45:41.950Z,99776.56
2023-01-18T16:48:49.787Z,99775.53
2023-01-18T16:51:51.827Z,99800.75
2023-01-18T16:55:01.170Z,99795.31
2023-01-18T16:58:06.750Z,99826.84
2023-01-18T17:01:14.734Z,99836.53
2023-01-18T17:04:18.577Z,99828.13
2023-01-18T17:07:22.064Z,99857.25
2023-01-18T17:10:35.166Z,99868.63
2023-01-18T17:13:37.276Z,99845.88
2023-01-18T17:16:43.943Z,99860.81
2023-01-18T17:19:46.185Z,99877.22
2023-01-18T17:22:48.895Z,99894.38
2023-01-18T17:25:50.956Z,99871.34
2023-01-18T17:28:53.164Z,99892.91
2023-01-18T17:31:55.291Z,99897.28
2023-01-18T17:34:57.564Z,99883.25
2023-01-18T17:38:05.712Z,99899.81
2023-01-18T17:41:27.259Z,99913.88
2023-01-18T17:44:36.711Z,99928.91
2023-01-18T17:47:42.735Z,99933.66
2023-01-18T17:50:44.863Z,99928.78
2023-01-18T17:53:47.940Z,99932.97
2023-01-18T17:56:52.401Z,99932.22
2023-01-18T17:59:56.051Z,99929.41
2023-01-18T18:02:59.393Z,99922.97
2023-01-18T18:06:03.874Z,99919.66
2023-01-18T18:09:06.941Z,99922.38
2023-01-18T18:12:10.884Z,99950.13
2023-01-18T18:15:14.892Z,99958.78
2023-01-18T18:18:24.195Z,99973.50
2023-01-18T18:21:27.515Z,99981.34
2023-01-18T18:24:30.686Z,99976.31
2023-01-18T18:27:44.731Z,99988.22
2023-01-18T18:30:49.100Z,99985.09
2023-01-18T18:33:51.409Z,99988.22
2023-01-18T18:36:53.843Z,99997.97
2023-01-18T18:39:55.985Z,100000.38
2023-01-18T18:43:02.429Z,100008.97
2023-01-18T18:46:05.190Z,100008.03
2023-01-18T18:49:07.387Z,100008.31
2023-01-18T18:52:09.497Z,100019.66
2023-01-18T18:55:12.159Z,99996.03
2023-01-18T18:58:16.026Z,99995.28
2023-01-18T19:01:23.845Z,100001.75
2023-01-18T19:04:26.839Z,100014.88
2023-01-18T19:07:29.207Z,100016.66
2023-01-18T19:10:31.400Z,100026.50
2023-01-18T19:13:33.500Z,100021.66
2023-01-18T19:16:37.537Z,100029.34
2023-01-18T19:19:39.660Z,100027.78
2023-01-18T19:22:44.094Z,100046.78
2023-01-18T19:25:48.937Z,100032.22
2023-01-18T19:28:53.518Z,100046.19
2023-01-18T19:31:55.921Z,100050.63
2023-01-18T19:34:58.121Z,100054.84
2023-01-18T19:38:01.043Z,100057.47
2023-01-18T19:41:03.279Z,100067.09
2023-01-18T19:44:05.705Z,100062.59
2023-01-18T19:47:07.692Z,100031.81
2023-01-18T19:50:10.410Z,100054.09
2023-01-18T19:53:14.106Z,100049.13
2023-01-18T19:56:16.298Z,100046.47
2023-01-18T19:59:18.725Z,100051.72
2023-01-18T20:02:22.522Z,100050.81
2023-01-18T20:05:25.019Z,100057.63
2023-01-18T20:08:27.077Z,100060.22
2023-01-18T20:11:29.295Z,100062.94
2023-01-18T20:14:40.932Z,100064.78
2023-01-18T20:17:43.942Z,100039.38
2023-01-18T20:20:46.070Z,100070.03
2023-01-18T20:23:48.641Z,100054.19
2023-01-18T20:26:50.815Z,100051.22
2023-01-18T20:29:53.197Z,100066.19
2023-01-18T20:32:57.860Z,100052.31
2023-01-18T20:36:01.836Z,100063.66
2023-01-18T20:39:05.543Z,100075.75
2023-01-18T20:42:08.814Z,100072.78
2023-01-18T20:45:11.069Z,100071.13
2023-01-18T20:48:14.130Z,100059.56
2023-01-18T20:51:18.042Z,100078.13
2023-01-18T20:54:22.964Z,100081.53
2023-01-18T20:57:27.391Z,100070.88
2023-01-18T21:00:29.682Z,100068.00
2023-01-18T21:03:31.748Z,100075.81
2023-01-18T21:06:34.247Z,100075.44
2023-01-18T21:09:36.520Z,100070.09
2023-01-18T21:12:38.622Z,100080.84
2023-01-18T21:15:42.096Z,100076.19
2023-01-18T21:18:44.159Z,100066.97
2023-01-18T21:21:46.411Z,100072.06
2023-01-18T21:24:48.919Z,100071.13
2023-01-18T21:27:52.161Z,100075.53
2023-01-18T21:30:55.988Z,100082.66
2023-01-18T21:33:58.709Z,100084.97
2023-01-18T21:37:00.808Z,100103.94
2023-01-18T21:40:04.053Z,100093.50
2023-01-18T21:43:25.066Z,100096.81
2023-01-18T21:46:27.137Z,100092.59
2023-01-18T21:50:15.448Z,100093.25
2023-01-18T21:53:33.156Z,100098.84
2023-01-18T21:56:37.481Z,100104.28
2023-01-18T21:59:39.514Z,100090.50
2023-01-18T22:02:42.957Z,100094.66
2023-01-18T22:05:45.120Z,100074.44
2023-01-18T22:08:47.312Z,100073.44
2023-01-18T22:11:50.224Z,100073.44
2023-01-18T22:14:52.937Z,100065.09
2023-01-18T22:17:55.145Z,100055.53
2023-01-18T22:20:57.186Z,100041.34
2023-01-18T22:24:00.678Z,100050.91
2023-01-18T22:27:02.731Z,100046.53
2023-01-18T22:30:05.816Z,100049.69
2023-01-18T22:33:07.929Z,100050.09
2023-01-18T22:36:10.469Z,100042.41
2023-01-18T22:39:13.375Z,100066.31
2023-01-18T22:42:15.420Z,100071.78
2023-01-18T22:45:18.868Z,100075.75
2023-01-18T22:48:21.101Z,100072.00
2023-01-18T22:51:24.128Z,100074.09
2023-01-18T22:54:26.413Z,100065.97
2023-01-18T22:57:28.484Z,100058.84
2023-01-18T23:00:30.526Z,100033.22
2023-01-18T23:03:33.807Z,100035.75
2023-01-18T23:06:50.818Z,100038.88
2023-01-18T23:09:52.936Z,100052.59
2023-01-18T23:12:56.153Z,100048.47
2023-01-18T23:16:16.711Z,100043.47
2023-01-18T23:19:18.820Z,100039.69
2023-01-18T23:22:21.106Z,100044.91
2023-01-18T23:25:23.116Z,100050.16
2023-01-18T23:28:41.246Z,100052.22
2023-01-18T23:31:44.647Z,100041.59
2023-01-18T23:34:47.967Z,100060.38
2023-01-18T23:37:50.305Z,100039.31
2023-01-18T23:41:15.236Z,100044.56
2023-01-18T23:44:35.979Z,100046.44
2023-01-18T23:47:56.845Z,100052.25
2023-01-18T23:51:19.211Z,100045.81
2023-01-18T23:54:22.543Z,100075.41
2023-01-18T23:57:25.129Z,100074.56
